Neapolis, Ohio
Current Conditions -  °F | °C
As of 5:52 AM on Monday 20 Oct 2014 (Local Time) from KTOL Reporting Station
Light Rain Light Rain  
Wind Chill: 44°   Ceiling: 9500
Heat Index: 47°   Visibility: 8mi
Dew Point: 41°   Wind: 7mph
Humidity: 80%   Direction: 210°SSW
Pressure: 29.91"   Gusts: NA
Location:  41.49°N, 83.87°W
Report Text: KTOL 200952Z 21006KT 8SM -RA OVC095 08/05 A2991 RMK AO2 RAB51 SLP131 P0000 T00830050 $
Loading
Personal Weather Stations






























Interactive Weather Map
Tropical Storm Tracking
New forecast layout! Learn more

10-Day Weather Forecast

Advertisements
Track Severe Weather on mobile